sensor_id;sensor_type;location;lat;lon;timestamp;temperature;humidity
9118;DHT22;4594;50.994;7.126;2024-01-11T00:01:03;-2.40;37.30
9118;DHT22;4594;50.994;7.126;2024-01-11T00:03:29;-2.50;37.30
9118;DHT22;4594;50.994;7.126;2024-01-11T00:05:55;-2.50;37.30
9118;DHT22;4594;50.994;7.126;2024-01-11T00:08:20;-2.50;37.30
9118;DHT22;4594;50.994;7.126;2024-01-11T00:10:46;-2.50;37.30
9118;DHT22;4594;50.994;7.126;2024-01-11T00:13:12;-2.50;37.30
9118;DHT22;4594;50.994;7.126;2024-01-11T00:15:38;-2.60;37.30
9118;DHT22;4594;50.994;7.126;2024-01-11T00:18:03;-2.60;37.30
9118;DHT22;4594;50.994;7.126;2024-01-11T00:20:29;-2.60;37.20
9118;DHT22;4594;50.994;7.126;2024-01-11T00:22:55;-2.60;37.20
9118;DHT22;4594;50.994;7.126;2024-01-11T00:25:20;-2.60;37.20
9118;DHT22;4594;50.994;7.126;2024-01-11T00:27:46;-2.60;37.20
9118;DHT22;4594;50.994;7.126;2024-01-11T00:30:12;-2.70;37.10
9118;DHT22;4594;50.994;7.126;2024-01-11T00:32:38;-2.70;37.20
9118;DHT22;4594;50.994;7.126;2024-01-11T00:35:04;-2.70;37.20
9118;DHT22;4594;50.994;7.126;2024-01-11T00:37:30;-2.70;37.20
9118;DHT22;4594;50.994;7.126;2024-01-11T00:39:55;-2.70;37.30
9118;DHT22;4594;50.994;7.126;2024-01-11T00:42:21;-2.70;37.40
9118;DHT22;4594;50.994;7.126;2024-01-11T00:44:46;-2.70;37.40
9118;DHT22;4594;50.994;7.126;2024-01-11T00:47:12;-2.70;37.50
9118;DHT22;4594;50.994;7.126;2024-01-11T00:49:38;-2.70;37.50
9118;DHT22;4594;50.994;7.126;2024-01-11T00:52:04;-2.70;37.40
9118;DHT22;4594;50.994;7.126;2024-01-11T00:54:30;-2.70;37.50
9118;DHT22;4594;50.994;7.126;2024-01-11T00:56:55;-2.70;37.60
9118;DHT22;4594;50.994;7.126;2024-01-11T00:59:21;-2.70;37.70
9118;DHT22;4594;50.994;7.126;2024-01-11T01:01:50;-2.70;37.80
9118;DHT22;4594;50.994;7.126;2024-01-11T01:04:16;-2.70;37.70
9118;DHT22;4594;50.994;7.126;2024-01-11T01:06:42;-2.70;37.80
9118;DHT22;4594;50.994;7.126;2024-01-11T01:09:08;-2.70;37.80
9118;DHT22;4594;50.994;7.126;2024-01-11T01:11:34;-2.70;37.80
9118;DHT22;4594;50.994;7.126;2024-01-11T01:14:00;-2.60;37.90
9118;DHT22;4594;50.994;7.126;2024-01-11T01:16:25;-2.60;37.80
9118;DHT22;4594;50.994;7.126;2024-01-11T01:18:51;-2.60;37.70
9118;DHT22;4594;50.994;7.126;2024-01-11T01:21:17;-2.60;37.70
9118;DHT22;4594;50.994;7.126;2024-01-11T01:23:43;-2.60;37.70
9118;DHT22;4594;50.994;7.126;2024-01-11T01:26:09;-2.60;37.60
9118;DHT22;4594;50.994;7.126;2024-01-11T01:28:34;-2.60;37.60
9118;DHT22;4594;50.994;7.126;2024-01-11T01:31:00;-2.70;37.50
9118;DHT22;4594;50.994;7.126;2024-01-11T01:33:25;-2.70;37.50
9118;DHT22;4594;50.994;7.126;2024-01-11T01:35:51;-2.70;37.40
9118;DHT22;4594;50.994;7.126;2024-01-11T01:38:17;-2.70;37.40
9118;DHT22;4594;50.994;7.126;2024-01-11T01:40:43;-2.70;37.40
9118;DHT22;4594;50.994;7.126;2024-01-11T01:43:10;-2.70;37.50
9118;DHT22;4594;50.994;7.126;2024-01-11T01:45:35;-2.70;37.60
9118;DHT22;4594;50.994;7.126;2024-01-11T01:48:02;-2.70;37.60
9118;DHT22;4594;50.994;7.126;2024-01-11T01:50:28;-2.70;37.60
9118;DHT22;4594;50.994;7.126;2024-01-11T01:52:55;-2.70;37.50
9118;DHT22;4594;50.994;7.126;2024-01-11T01:55:22;-2.70;37.50
9118;DHT22;4594;50.994;7.126;2024-01-11T01:57:50;-2.70;37.50
9118;DHT22;4594;50.994;7.126;2024-01-11T02:00:17;-2.70;37.40
9118;DHT22;4594;50.994;7.126;2024-01-11T02:02:44;-2.80;37.30
9118;DHT22;4594;50.994;7.126;2024-01-11T02:05:16;-2.80;37.30
9118;DHT22;4594;50.994;7.126;2024-01-11T02:07:43;-2.80;37.30
9118;DHT22;4594;50.994;7.126;2024-01-11T02:10:09;-2.80;37.30
9118;DHT22;4594;50.994;7.126;2024-01-11T02:12:36;-2.80;37.30
9118;DHT22;4594;50.994;7.126;2024-01-11T02:15:05;-2.80;37.30
9118;DHT22;4594;50.994;7.126;2024-01-11T02:17:31;-2.80;37.30
9118;DHT22;4594;50.994;7.126;2024-01-11T02:19:57;-2.80;37.60
9118;DHT22;4594;50.994;7.126;2024-01-11T02:22:34;-2.90;37.20
9118;DHT22;4594;50.994;7.126;2024-01-11T02:25:03;-2.90;37.00
9118;DHT22;4594;50.994;7.126;2024-01-11T02:27:29;-2.90;37.10
9118;DHT22;4594;50.994;7.126;2024-01-11T02:29:54;-2.90;37.10
9118;DHT22;4594;50.994;7.126;2024-01-11T02:32:20;-2.90;37.10
9118;DHT22;4594;50.994;7.126;2024-01-11T02:34:47;-2.90;37.10
9118;DHT22;4594;50.994;7.126;2024-01-11T02:37:14;-2.60;37.30
9118;DHT22;4594;50.994;7.126;2024-01-11T02:39:40;-3.00;36.90
9118;DHT22;4594;50.994;7.126;2024-01-11T02:42:06;-3.00;37.00
9118;DHT22;4594;50.994;7.126;2024-01-11T02:44:32;-3.00;37.00
9118;DHT22;4594;50.994;7.126;2024-01-11T02:46:58;-3.10;36.90
9118;DHT22;4594;50.994;7.126;2024-01-11T02:49:24;-3.10;37.00
9118;DHT22;4594;50.994;7.126;2024-01-11T02:51:49;-3.10;37.00
9118;DHT22;4594;50.994;7.126;2024-01-11T02:54:15;-3.10;36.90
9118;DHT22;4594;50.994;7.126;2024-01-11T02:56:41;-3.10;36.90
9118;DHT22;4594;50.994;7.126;2024-01-11T02:59:07;-3.20;37.10
9118;DHT22;4594;50.994;7.126;2024-01-11T03:01:33;-3.20;36.80
9118;DHT22;4594;50.994;7.126;2024-01-11T03:03:59;-3.20;36.80
9118;DHT22;4594;50.994;7.126;2024-01-11T03:06:25;-3.20;36.70
9118;DHT22;4594;50.994;7.126;2024-01-11T03:08:51;-3.30;37.00
9118;DHT22;4594;50.994;7.126;2024-01-11T03:11:17;-3.30;36.70
9118;DHT22;4594;50.994;7.126;2024-01-11T03:13:43;-3.30;36.80
9118;DHT22;4594;50.994;7.126;2024-01-11T03:16:08;-3.30;36.80
9118;DHT22;4594;50.994;7.126;2024-01-11T03:18:34;-3.30;36.80
9118;DHT22;4594;50.994;7.126;2024-01-11T03:21:00;-3.30;36.90
9118;DHT22;4594;50.994;7.126;2024-01-11T03:23:26;-3.40;36.80
9118;DHT22;4594;50.994;7.126;2024-01-11T03:25:51;-3.40;36.90
9118;DHT22;4594;50.994;7.126;2024-01-11T03:28:17;-3.40;36.80
9118;DHT22;4594;50.994;7.126;2024-01-11T03:30:43;-3.40;36.80
9118;DHT22;4594;50.994;7.126;2024-01-11T03:33:09;-3.40;36.80
9118;DHT22;4594;50.994;7.126;2024-01-11T03:35:35;-4.20;36.10
9118;DHT22;4594;50.994;7.126;2024-01-11T03:38:06;-3.40;36.70
9118;DHT22;4594;50.994;7.126;2024-01-11T03:40:32;-3.50;36.60
9118;DHT22;4594;50.994;7.126;2024-01-11T03:42:58;-3.50;36.60
9118;DHT22;4594;50.994;7.126;2024-01-11T03:45:24;-3.40;36.70
9118;DHT22;4594;50.994;7.126;2024-01-11T03:47:49;-3.50;36.60
9118;DHT22;4594;50.994;7.126;2024-01-11T03:50:15;-3.60;36.50
9118;DHT22;4594;50.994;7.126;2024-01-11T03:52:42;-3.60;36.50
9118;DHT22;4594;50.994;7.126;2024-01-11T03:55:08;-3.60;36.50
9118;DHT22;4594;50.994;7.126;2024-01-11T03:57:34;-3.60;36.50
9118;DHT22;4594;50.994;7.126;2024-01-11T04:00:00;-3.60;36.50
9118;DHT22;4594;50.994;7.126;2024-01-11T04:02:26;-3.70;36.50
9118;DHT22;4594;50.994;7.126;2024-01-11T04:04:52;-3.70;36.50
9118;DHT22;4594;50.994;7.126;2024-01-11T04:07:19;-3.70;36.50
9118;DHT22;4594;50.994;7.126;2024-01-11T04:09:44;-3.70;36.50
9118;DHT22;4594;50.994;7.126;2024-01-11T04:12:10;-3.70;36.60
9118;DHT22;4594;50.994;7.126;2024-01-11T04:14:39;-3.80;36.50
9118;DHT22;4594;50.994;7.126;2024-01-11T04:17:05;-3.80;36.40
9118;DHT22;4594;50.994;7.126;2024-01-11T04:19:31;-3.80;36.50
9118;DHT22;4594;50.994;7.126;2024-01-11T04:21:57;-3.80;36.50
9118;DHT22;4594;50.994;7.126;2024-01-11T04:24:22;-3.80;36.40
9118;DHT22;4594;50.994;7.126;2024-01-11T04:26:48;-3.80;36.50
9118;DHT22;4594;50.994;7.126;2024-01-11T04:29:14;-3.80;36.50
9118;DHT22;4594;50.994;7.126;2024-01-11T04:31:40;-3.90;36.40
9118;DHT22;4594;50.994;7.126;2024-01-11T04:34:05;-3.90;36.30
9118;DHT22;4594;50.994;7.126;2024-01-11T04:36:31;-3.90;36.30
9118;DHT22;4594;50.994;7.126;2024-01-11T04:38:57;-3.90;36.30
9118;DHT22;4594;50.994;7.126;2024-01-11T04:41:22;-4.00;36.30
9118;DHT22;4594;50.994;7.126;2024-01-11T04:43:48;-4.00;36.30
9118;DHT22;4594;50.994;7.126;2024-01-11T04:46:21;-4.00;36.30
9118;DHT22;4594;50.994;7.126;2024-01-11T04:48:49;-4.00;36.30
9118;DHT22;4594;50.994;7.126;2024-01-11T04:51:16;-4.00;36.30
9118;DHT22;4594;50.994;7.126;2024-01-11T04:53:44;-4.10;36.30
9118;DHT22;4594;50.994;7.126;2024-01-11T04:56:14;-4.10;36.40
9118;DHT22;4594;50.994;7.126;2024-01-11T04:58:42;-4.10;36.40
9118;DHT22;4594;50.994;7.126;2024-01-11T05:01:16;-4.10;36.30
9118;DHT22;4594;50.994;7.126;2024-01-11T05:03:43;-4.10;36.30
9118;DHT22;4594;50.994;7.126;2024-01-11T05:06:18;-4.10;36.30
9118;DHT22;4594;50.994;7.126;2024-01-11T05:08:46;-4.10;36.30
9118;DHT22;4594;50.994;7.126;2024-01-11T05:11:21;-4.20;36.20
9118;DHT22;4594;50.994;7.126;2024-01-11T05:13:49;-4.20;36.20
9118;DHT22;4594;50.994;7.126;2024-01-11T05:16:25;-4.20;36.20
9118;DHT22;4594;50.994;7.126;2024-01-11T05:18:53;-4.20;36.20
9118;DHT22;4594;50.994;7.126;2024-01-11T05:21:20;-4.20;36.20
9118;DHT22;4594;50.994;7.126;2024-01-11T05:23:47;-4.20;36.20
9118;DHT22;4594;50.994;7.126;2024-01-11T05:26:15;-4.30;36.10
9118;DHT22;4594;50.994;7.126;2024-01-11T05:28:41;-4.30;36.10
9118;DHT22;4594;50.994;7.126;2024-01-11T05:31:10;-4.30;36.10
9118;DHT22;4594;50.994;7.126;2024-01-11T05:33:37;-4.30;36.10
9118;DHT22;4594;50.994;7.126;2024-01-11T05:36:03;-4.40;36.00
9118;DHT22;4594;50.994;7.126;2024-01-11T05:38:29;-4.40;36.00
9118;DHT22;4594;50.994;7.126;2024-01-11T05:40:55;-4.30;36.10
9118;DHT22;4594;50.994;7.126;2024-01-11T05:43:22;-4.40;36.00
9118;DHT22;4594;50.994;7.126;2024-01-11T05:45:51;-4.40;36.00
9118;DHT22;4594;50.994;7.126;2024-01-11T05:48:17;-4.40;36.00
9118;DHT22;4594;50.994;7.126;2024-01-11T05:50:44;-4.40;36.10
9118;DHT22;4594;50.994;7.126;2024-01-11T05:53:14;-4.50;36.00
9118;DHT22;4594;50.994;7.126;2024-01-11T05:55:40;-4.50;36.00
9118;DHT22;4594;50.994;7.126;2024-01-11T05:58:05;-4.50;36.10
9118;DHT22;4594;50.994;7.126;2024-01-11T06:00:31;-4.50;36.10
9118;DHT22;4594;50.994;7.126;2024-01-11T06:02:57;-4.50;36.10
9118;DHT22;4594;50.994;7.126;2024-01-11T06:05:23;-4.50;36.20
9118;DHT22;4594;50.994;7.126;2024-01-11T06:07:48;-4.50;36.40
9118;DHT22;4594;50.994;7.126;2024-01-11T06:10:14;-4.50;36.50
9118;DHT22;4594;50.994;7.126;2024-01-11T06:12:40;-4.50;36.60
9118;DHT22;4594;50.994;7.126;2024-01-11T06:15:07;-4.50;36.70
9118;DHT22;4594;50.994;7.126;2024-01-11T06:17:33;-4.40;36.90
9118;DHT22;4594;50.994;7.126;2024-01-11T06:19:58;-4.40;36.80
9118;DHT22;4594;50.994;7.126;2024-01-11T06:22:24;-4.40;36.80
9118;DHT22;4594;50.994;7.126;2024-01-11T06:24:50;-4.30;36.80
9118;DHT22;4594;50.994;7.126;2024-01-11T06:27:15;-4.30;36.80
9118;DHT22;4594;50.994;7.126;2024-01-11T06:29:41;-4.30;36.80
9118;DHT22;4594;50.994;7.126;2024-01-11T06:32:07;-4.20;36.80
9118;DHT22;4594;50.994;7.126;2024-01-11T06:34:34;-4.30;36.80
9118;DHT22;4594;50.994;7.126;2024-01-11T06:37:01;-4.30;36.90
9118;DHT22;4594;50.994;7.126;2024-01-11T06:39:28;-4.20;36.90
9118;DHT22;4594;50.994;7.126;2024-01-11T06:41:55;-4.20;36.80
9118;DHT22;4594;50.994;7.126;2024-01-11T06:44:21;-4.20;36.80
9118;DHT22;4594;50.994;7.126;2024-01-11T06:46:47;-4.20;36.70
9118;DHT22;4594;50.994;7.126;2024-01-11T06:49:12;-4.20;36.60
9118;DHT22;4594;50.994;7.126;2024-01-11T06:51:38;-4.20;36.60
9118;DHT22;4594;50.994;7.126;2024-01-11T06:54:04;-4.20;36.50
9118;DHT22;4594;50.994;7.126;2024-01-11T06:56:30;-4.20;36.40
9118;DHT22;4594;50.994;7.126;2024-01-11T06:58:56;-4.20;36.40
9118;DHT22;4594;50.994;7.126;2024-01-11T07:01:22;-4.20;36.40
9118;DHT22;4594;50.994;7.126;2024-01-11T07:03:48;-4.20;36.40
9118;DHT22;4594;50.994;7.126;2024-01-11T07:06:15;-4.20;36.50
9118;DHT22;4594;50.994;7.126;2024-01-11T07:08:41;-4.30;36.50
9118;DHT22;4594;50.994;7.126;2024-01-11T07:11:06;-4.20;36.60
9118;DHT22;4594;50.994;7.126;2024-01-11T07:13:33;-4.20;36.60
9118;DHT22;4594;50.994;7.126;2024-01-11T07:15:58;-4.20;36.50
9118;DHT22;4594;50.994;7.126;2024-01-11T07:18:25;-4.20;36.50
9118;DHT22;4594;50.994;7.126;2024-01-11T07:20:52;-4.20;36.50
9118;DHT22;4594;50.994;7.126;2024-01-11T07:23:18;-4.20;36.40
9118;DHT22;4594;50.994;7.126;2024-01-11T07:25:44;-4.20;36.30
9118;DHT22;4594;50.994;7.126;2024-01-11T07:28:10;-4.30;36.20
9118;DHT22;4594;50.994;7.126;2024-01-11T07:30:35;-4.30;36.20
9118;DHT22;4594;50.994;7.126;2024-01-11T07:33:01;-4.30;36.30
9118;DHT22;4594;50.994;7.126;2024-01-11T07:35:27;-4.30;36.30
9118;DHT22;4594;50.994;7.126;2024-01-11T07:37:53;-4.20;36.50
9118;DHT22;4594;50.994;7.126;2024-01-11T07:40:19;-4.20;36.60
9118;DHT22;4594;50.994;7.126;2024-01-11T07:42:45;-4.20;36.70
9118;DHT22;4594;50.994;7.126;2024-01-11T07:45:12;-4.20;36.60
9118;DHT22;4594;50.994;7.126;2024-01-11T07:47:39;-4.20;36.60
9118;DHT22;4594;50.994;7.126;2024-01-11T07:50:09;-4.20;36.60
9118;DHT22;4594;50.994;7.126;2024-01-11T07:52:40;-4.20;36.60
9118;DHT22;4594;50.994;7.126;2024-01-11T07:55:09;-4.20;36.60
9118;DHT22;4594;50.994;7.126;2024-01-11T07:57:37;-4.20;36.60
9118;DHT22;4594;50.994;7.126;2024-01-11T08:00:05;-4.20;36.60
9118;DHT22;4594;50.994;7.126;2024-01-11T08:02:34;-4.10;37.00
9118;DHT22;4594;50.994;7.126;2024-01-11T08:05:00;-4.00;37.50
9118;DHT22;4594;50.994;7.126;2024-01-11T08:07:29;-3.90;38.00
9118;DHT22;4594;50.994;7.126;2024-01-11T08:09:55;-3.70;38.60
9118;DHT22;4594;50.994;7.126;2024-01-11T08:12:21;-3.50;39.40
9118;DHT22;4594;50.994;7.126;2024-01-11T08:14:47;-3.20;40.30
9118;DHT22;4594;50.994;7.126;2024-01-11T08:17:14;-2.90;41.20
9118;DHT22;4594;50.994;7.126;2024-01-11T08:19:40;-2.60;42.20
9118;DHT22;4594;50.994;7.126;2024-01-11T08:22:06;-2.20;43.10
9118;DHT22;4594;50.994;7.126;2024-01-11T08:24:32;-1.90;43.90
9118;DHT22;4594;50.994;7.126;2024-01-11T08:26:59;-1.50;44.80
9118;DHT22;4594;50.994;7.126;2024-01-11T08:29:25;-1.10;45.70
9118;DHT22;4594;50.994;7.126;2024-01-11T08:31:51;-0.70;46.50
9118;DHT22;4594;50.994;7.126;2024-01-11T08:34:17;-0.30;47.20
9118;DHT22;4594;50.994;7.126;2024-01-11T08:36:42;0.10;47.60
9118;DHT22;4594;50.994;7.126;2024-01-11T08:39:08;0.50;48.10
9118;DHT22;4594;50.994;7.126;2024-01-11T08:41:36;0.90;48.50
9118;DHT22;4594;50.994;7.126;2024-01-11T08:44:05;1.30;48.30
9118;DHT22;4594;50.994;7.126;2024-01-11T08:46:32;1.70;48.10
9118;DHT22;4594;50.994;7.126;2024-01-11T08:49:00;2.00;47.70
9118;DHT22;4594;50.994;7.126;2024-01-11T08:51:29;2.30;47.40
9118;DHT22;4594;50.994;7.126;2024-01-11T08:53:55;2.60;47.20
9118;DHT22;4594;50.994;7.126;2024-01-11T08:56:21;2.80;46.60
9118;DHT22;4594;50.994;7.126;2024-01-11T08:58:47;2.90;45.70
9118;DHT22;4594;50.994;7.126;2024-01-11T09:01:14;3.10;45.10
9118;DHT22;4594;50.994;7.126;2024-01-11T09:03:40;3.20;44.90
9118;DHT22;4594;50.994;7.126;2024-01-11T09:06:06;3.30;44.80
9118;DHT22;4594;50.994;7.126;2024-01-11T09:08:32;3.30;44.60
9118;DHT22;4594;50.994;7.126;2024-01-11T09:10:58;3.40;44.30
9118;DHT22;4594;50.994;7.126;2024-01-11T09:13:25;3.40;44.10
9118;DHT22;4594;50.994;7.126;2024-01-11T09:15:54;3.40;43.90
9118;DHT22;4594;50.994;7.126;2024-01-11T09:18:20;3.50;43.80
9118;DHT22;4594;50.994;7.126;2024-01-11T09:20:47;3.50;43.50
9118;DHT22;4594;50.994;7.126;2024-01-11T09:23:14;3.60;43.50
9118;DHT22;4594;50.994;7.126;2024-01-11T09:25:40;3.60;43.40
9118;DHT22;4594;50.994;7.126;2024-01-11T09:28:06;3.60;43.40
9118;DHT22;4594;50.994;7.126;2024-01-11T09:30:32;3.60;43.40
9118;DHT22;4594;50.994;7.126;2024-01-11T09:32:57;3.60;43.30
9118;DHT22;4594;50.994;7.126;2024-01-11T09:35:23;3.70;43.30
9118;DHT22;4594;50.994;7.126;2024-01-11T09:37:52;3.70;43.10
9118;DHT22;4594;50.994;7.126;2024-01-11T09:40:18;3.70;42.70
9118;DHT22;4594;50.994;7.126;2024-01-11T09:42:44;3.70;43.10
9118;DHT22;4594;50.994;7.126;2024-01-11T09:45:13;3.70;43.30
9118;DHT22;4594;50.994;7.126;2024-01-11T09:47:44;3.80;43.20
9118;DHT22;4594;50.994;7.126;2024-01-11T09:50:16;3.80;43.60
9118;DHT22;4594;50.994;7.126;2024-01-11T09:52:49;3.90;43.70
9118;DHT22;4594;50.994;7.126;2024-01-11T09:55:18;3.90;43.30
9118;DHT22;4594;50.994;7.126;2024-01-11T09:57:46;4.00;43.50
9118;DHT22;4594;50.994;7.126;2024-01-11T10:00:23;4.10;44.00
9118;DHT22;4594;50.994;7.126;2024-01-11T10:02:49;4.20;44.50
9118;DHT22;4594;50.994;7.126;2024-01-11T10:05:18;4.30;44.70
9118;DHT22;4594;50.994;7.126;2024-01-11T10:07:44;4.50;44.50
9118;DHT22;4594;50.994;7.126;2024-01-11T10:10:11;4.70;45.40
9118;DHT22;4594;50.994;7.126;2024-01-11T10:12:40;4.80;45.60
9118;DHT22;4594;50.994;7.126;2024-01-11T10:15:07;5.00;45.80
9118;DHT22;4594;50.994;7.126;2024-01-11T10:17:41;5.10;45.60
9118;DHT22;4594;50.994;7.126;2024-01-11T10:20:14;5.30;44.90
9118;DHT22;4594;50.994;7.126;2024-01-11T10:22:40;5.40;44.70
9118;DHT22;4594;50.994;7.126;2024-01-11T10:25:14;5.50;45.10
9118;DHT22;4594;50.994;7.126;2024-01-11T10:27:42;5.50;43.90
9118;DHT22;4594;50.994;7.126;2024-01-11T10:30:15;5.60;44.60
9118;DHT22;4594;50.994;7.126;2024-01-11T10:32:45;5.60;43.90
9118;DHT22;4594;50.994;7.126;2024-01-11T10:35:21;5.70;43.90
9118;DHT22;4594;50.994;7.126;2024-01-11T10:37:56;5.70;43.80
9118;DHT22;4594;50.994;7.126;2024-01-11T10:40:24;5.70;44.10
9118;DHT22;4594;50.994;7.126;2024-01-11T10:42:51;5.80;43.90
9118;DHT22;4594;50.994;7.126;2024-01-11T10:45:19;5.80;43.60
9118;DHT22;4594;50.994;7.126;2024-01-11T10:50:25;5.80;42.80
9118;DHT22;4594;50.994;7.126;2024-01-11T10:53:12;5.80;42.90
9118;DHT22;4594;50.994;7.126;2024-01-11T10:55:44;5.70;42.10
9118;DHT22;4594;50.994;7.126;2024-01-11T10:58:10;5.70;42.60
9118;DHT22;4594;50.994;7.126;2024-01-11T11:00:37;5.70;42.50
9118;DHT22;4594;50.994;7.126;2024-01-11T11:03:05;5.70;42.50
9118;DHT22;4594;50.994;7.126;2024-01-11T11:05:34;5.60;42.00
9118;DHT22;4594;50.994;7.126;2024-01-11T11:08:02;5.60;42.00
9118;DHT22;4594;50.994;7.126;2024-01-11T11:10:30;5.60;42.00
9118;DHT22;4594;50.994;7.126;2024-01-11T11:12:58;5.50;41.90
9118;DHT22;4594;50.994;7.126;2024-01-11T11:15:27;5.50;42.00
9118;DHT22;4594;50.994;7.126;2024-01-11T11:17:53;5.50;41.90
9118;DHT22;4594;50.994;7.126;2024-01-11T11:20:19;5.40;42.00
9118;DHT22;4594;50.994;7.126;2024-01-11T11:23:03;5.40;42.00
9118;DHT22;4594;50.994;7.126;2024-01-11T11:25:30;5.40;41.00
9118;DHT22;4594;50.994;7.126;2024-01-11T11:27:56;5.40;42.10
9118;DHT22;4594;50.994;7.126;2024-01-11T11:30:23;5.40;42.00
9118;DHT22;4594;50.994;7.126;2024-01-11T11:32:49;5.40;42.00
9118;DHT22;4594;50.994;7.126;2024-01-11T11:35:14;5.30;41.90
9118;DHT22;4594;50.994;7.126;2024-01-11T11:37:40;5.30;41.90
9118;DHT22;4594;50.994;7.126;2024-01-11T11:40:08;5.30;41.90
9118;DHT22;4594;50.994;7.126;2024-01-11T11:42:36;5.30;41.80
9118;DHT22;4594;50.994;7.126;2024-01-11T11:45:02;5.20;41.80
9118;DHT22;4594;50.994;7.126;2024-01-11T11:47:36;5.20;41.70
9118;DHT22;4594;50.994;7.126;2024-01-11T11:50:10;5.20;41.10
9118;DHT22;4594;50.994;7.126;2024-01-11T11:52:38;5.10;41.10
9118;DHT22;4594;50.994;7.126;2024-01-11T11:55:07;5.10;41.60
9118;DHT22;4594;50.994;7.126;2024-01-11T11:57:34;5.00;41.40
9118;DHT22;4594;50.994;7.126;2024-01-11T12:00:02;5.00;41.60
9118;DHT22;4594;50.994;7.126;2024-01-11T12:02:31;5.00;41.80
9118;DHT22;4594;50.994;7.126;2024-01-11T12:04:58;4.90;41.70
9118;DHT22;4594;50.994;7.126;2024-01-11T12:07:24;4.90;41.60
9118;DHT22;4594;50.994;7.126;2024-01-11T12:09:51;4.80;41.40
9118;DHT22;4594;50.994;7.126;2024-01-11T12:12:17;4.80;41.30
9118;DHT22;4594;50.994;7.126;2024-01-11T12:14:46;4.70;41.40
9118;DHT22;4594;50.994;7.126;2024-01-11T12:17:13;4.70;41.40
9118;DHT22;4594;50.994;7.126;2024-01-11T12:19:38;4.60;41.30
9118;DHT22;4594;50.994;7.126;2024-01-11T12:22:04;4.60;41.30
9118;DHT22;4594;50.994;7.126;2024-01-11T12:24:30;4.50;41.30
9118;DHT22;4594;50.994;7.126;2024-01-11T12:26:57;4.40;41.20
9118;DHT22;4594;50.994;7.126;2024-01-11T12:31:51;4.40;41.30
9118;DHT22;4594;50.994;7.126;2024-01-11T12:34:17;4.30;41.20
9118;DHT22;4594;50.994;7.126;2024-01-11T12:36:43;4.30;41.10
9118;DHT22;4594;50.994;7.126;2024-01-11T12:39:10;4.30;41.20
9118;DHT22;4594;50.994;7.126;2024-01-11T12:41:39;4.20;41.10
9118;DHT22;4594;50.994;7.126;2024-01-11T12:44:05;4.20;41.20
9118;DHT22;4594;50.994;7.126;2024-01-11T12:46:31;4.10;41.20
9118;DHT22;4594;50.994;7.126;2024-01-11T12:48:57;4.10;41.30
9118;DHT22;4594;50.994;7.126;2024-01-11T12:51:22;4.10;41.40
9118;DHT22;4594;50.994;7.126;2024-01-11T12:53:51;4.10;41.50
9118;DHT22;4594;50.994;7.126;2024-01-11T12:56:18;4.10;41.40
9118;DHT22;4594;50.994;7.126;2024-01-11T12:58:46;4.00;41.40
9118;DHT22;4594;50.994;7.126;2024-01-11T13:01:13;4.00;41.50
9118;DHT22;4594;50.994;7.126;2024-01-11T13:03:43;4.00;41.60
9118;DHT22;4594;50.994;7.126;2024-01-11T13:06:11;4.00;41.60
9118;DHT22;4594;50.994;7.126;2024-01-11T13:08:37;4.00;41.60
9118;DHT22;4594;50.994;7.126;2024-01-11T13:11:07;4.00;41.60
9118;DHT22;4594;50.994;7.126;2024-01-11T13:13:34;4.00;41.70
9118;DHT22;4594;50.994;7.126;2024-01-11T13:16:02;4.00;41.60
9118;DHT22;4594;50.994;7.126;2024-01-11T13:18:32;4.00;41.60
9118;DHT22;4594;50.994;7.126;2024-01-11T13:20:58;4.00;41.70
9118;DHT22;4594;50.994;7.126;2024-01-11T13:23:24;4.00;41.80
9118;DHT22;4594;50.994;7.126;2024-01-11T13:25:50;4.00;41.80
9118;DHT22;4594;50.994;7.126;2024-01-11T13:28:16;4.00;41.80
9118;DHT22;4594;50.994;7.126;2024-01-11T13:30:44;4.00;41.80
9118;DHT22;4594;50.994;7.126;2024-01-11T13:33:11;4.00;41.90
9118;DHT22;4594;50.994;7.126;2024-01-11T13:35:38;3.90;41.80
9118;DHT22;4594;50.994;7.126;2024-01-11T13:38:05;3.90;41.80
9118;DHT22;4594;50.994;7.126;2024-01-11T13:40:32;3.90;41.80
9118;DHT22;4594;50.994;7.126;2024-01-11T13:42:58;3.90;41.80
9118;DHT22;4594;50.994;7.126;2024-01-11T13:45:25;3.90;41.90
9118;DHT22;4594;50.994;7.126;2024-01-11T13:47:58;3.90;41.90
9118;DHT22;4594;50.994;7.126;2024-01-11T13:50:25;3.90;41.90
9118;DHT22;4594;50.994;7.126;2024-01-11T13:52:51;3.90;42.00
9118;DHT22;4594;50.994;7.126;2024-01-11T13:55:17;3.90;42.10
9118;DHT22;4594;50.994;7.126;2024-01-11T13:57:43;3.90;42.10
9118;DHT22;4594;50.994;7.126;2024-01-11T14:00:10;3.90;42.10
9118;DHT22;4594;50.994;7.126;2024-01-11T14:02:37;3.90;42.10
9118;DHT22;4594;50.994;7.126;2024-01-11T14:05:03;3.90;42.30
9118;DHT22;4594;50.994;7.126;2024-01-11T14:07:31;3.90;42.30
9118;DHT22;4594;50.994;7.126;2024-01-11T14:09:57;3.90;42.60
9118;DHT22;4594;50.994;7.126;2024-01-11T14:12:23;3.90;42.30
9118;DHT22;4594;50.994;7.126;2024-01-11T14:14:49;3.90;42.30
9118;DHT22;4594;50.994;7.126;2024-01-11T14:17:14;3.90;42.30
9118;DHT22;4594;50.994;7.126;2024-01-11T14:19:40;3.90;42.30
9118;DHT22;4594;50.994;7.126;2024-01-11T14:22:06;3.80;42.10
9118;DHT22;4594;50.994;7.126;2024-01-11T14:24:31;3.90;42.20
9118;DHT22;4594;50.994;7.126;2024-01-11T14:26:57;3.80;42.10
9118;DHT22;4594;50.994;7.126;2024-01-11T14:29:23;3.80;42.10
9118;DHT22;4594;50.994;7.126;2024-01-11T14:31:48;3.80;42.10
9118;DHT22;4594;50.994;7.126;2024-01-11T14:34:15;3.80;42.10
9118;DHT22;4594;50.994;7.126;2024-01-11T14:36:41;3.80;42.10
9118;DHT22;4594;50.994;7.126;2024-01-11T14:39:07;3.80;42.10
9118;DHT22;4594;50.994;7.126;2024-01-11T14:41:33;3.80;42.00
9118;DHT22;4594;50.994;7.126;2024-01-11T14:43:59;3.80;42.00
9118;DHT22;4594;50.994;7.126;2024-01-11T14:46:26;3.80;42.00
9118;DHT22;4594;50.994;7.126;2024-01-11T14:48:51;3.70;42.00
9118;DHT22;4594;50.994;7.126;2024-01-11T14:51:17;3.70;42.00
9118;DHT22;4594;50.994;7.126;2024-01-11T14:53:43;3.70;41.90
9118;DHT22;4594;50.994;7.126;2024-01-11T14:56:11;3.70;41.90
9118;DHT22;4594;50.994;7.126;2024-01-11T14:58:37;3.70;41.70
9118;DHT22;4594;50.994;7.126;2024-01-11T15:01:02;3.70;41.90
9118;DHT22;4594;50.994;7.126;2024-01-11T15:03:29;3.70;42.00
9118;DHT22;4594;50.994;7.126;2024-01-11T15:05:55;3.70;41.90
9118;DHT22;4594;50.994;7.126;2024-01-11T15:08:20;3.70;41.90
9118;DHT22;4594;50.994;7.126;2024-01-11T15:10:47;3.60;41.70
9118;DHT22;4594;50.994;7.126;2024-01-11T15:13:13;3.60;41.70
9118;DHT22;4594;50.994;7.126;2024-01-11T15:15:39;3.60;41.60
9118;DHT22;4594;50.994;7.126;2024-01-11T15:18:05;3.60;41.60
9118;DHT22;4594;50.994;7.126;2024-01-11T15:20:31;3.50;41.50
9118;DHT22;4594;50.994;7.126;2024-01-11T15:22:57;3.50;41.50
9118;DHT22;4594;50.994;7.126;2024-01-11T15:25:22;3.50;41.40
9118;DHT22;4594;50.994;7.126;2024-01-11T15:27:49;3.50;41.40
9118;DHT22;4594;50.994;7.126;2024-01-11T15:30:16;3.40;41.30
9118;DHT22;4594;50.994;7.126;2024-01-11T15:32:43;3.40;41.30
9118;DHT22;4594;50.994;7.126;2024-01-11T15:35:09;3.40;41.20
9118;DHT22;4594;50.994;7.126;2024-01-11T15:37:34;3.30;41.20
9118;DHT22;4594;50.994;7.126;2024-01-11T15:40:03;3.30;41.50
9118;DHT22;4594;50.994;7.126;2024-01-11T15:42:32;3.30;41.00
9118;DHT22;4594;50.994;7.126;2024-01-11T15:44:59;3.30;41.00
9118;DHT22;4594;50.994;7.126;2024-01-11T15:47:27;3.20;41.10
9118;DHT22;4594;50.994;7.126;2024-01-11T15:49:53;3.20;41.10
9118;DHT22;4594;50.994;7.126;2024-01-11T15:52:19;3.30;41.20
9118;DHT22;4594;50.994;7.126;2024-01-11T15:54:45;3.10;41.00
9118;DHT22;4594;50.994;7.126;2024-01-11T15:57:12;3.10;41.00
9118;DHT22;4594;50.994;7.126;2024-01-11T15:59:37;3.00;40.90
9118;DHT22;4594;50.994;7.126;2024-01-11T16:02:03;3.00;40.80
9118;DHT22;4594;50.994;7.126;2024-01-11T16:04:29;2.90;40.80
9118;DHT22;4594;50.994;7.126;2024-01-11T16:06:55;2.90;40.70
9118;DHT22;4594;50.994;7.126;2024-01-11T16:09:22;2.80;40.70
9118;DHT22;4594;50.994;7.126;2024-01-11T16:11:48;2.80;40.60